Temple, TX (76501)

12:54 AM CDT on July 24, 2016 (GMT -0500)
APRSWXNET | | Change Station

Elev 702 ft 31.07 °N, 97.37 °W | Updated 43 minutes ago

Clear
Clear
86 °F
Feels Like 92 °F
N
0
Wind Variable Wind from NE
Gusts 0.0 mph

Today
High -- | Low -- °F
--% Chance of Precip.
Yesterday
High -- | Low -- °F
Precip. -- in
Pressure 29.94 in
Visibility 10.0 miles
Clouds Clear
Heat Index 92 °F
Dew Point 72 °F
Humidity 63%
Rainfall in
Snow Depth Not available.
6:41 AM 8:29 PM
Waning Gibbous, 79% visible
METAR KTPL 240551Z AUTO 16010KT 10SM CLR 29/22 A2995 RMK AO2 SLP139 T02940222 10356 20294 403780239 51013
Pressure 29.94 in
Visibility 10.0 miles
Clouds Clear
Heat Index 92 °F
Dew Point 72 °F
Humidity 63%
Rainfall in
Snow Depth Not available.
6:41 AM 8:29 PM
Waning Gibbous, 79% visible
METAR KTPL 240551Z AUTO 16010KT 10SM CLR 29/22 A2995 RMK AO2 SLP139 T02940222 10356 20294 403780239 51013

10-Day Weather Forecast

Almanac

Astronomy

Jul. 24, 2016 Rise Set
Actual Time
Civil Twilight
Nautical Twilight
Astronomical Twilight
Moon
Length of Visible Light
Length of Day
Tomorrow will be .
, % of the Moon is Illuminated

Today's Extremes

State Highs State Lows

Community

WunderPhotos

Upload Photos

1,927,039 photos uploaded!

WunderBlog® & News

Nearby

Air Quality

  Air Quality AQ Index Pollutant
Not available.

Snow Depth

Station Depth Elevation

Earthquake Activity

City Distance Mag. Time & Date
Minimum magnitude displayed is 2.5.

Coastal Water Temperatures

Place Temperature

Stations

Nearby Weather Stations

Station Location Temp. Windchill Dew Point Humidity Wind Precip. Elev Updated Type
                   

Watches & Warnings

There are currently no watches in effect.